Time;durP1;ratioP1;P1;durP2;ratioP2;P2;SDS_P1;SDS_P2;PMS_P1;PMS_P2;Temp;Humidity;BMP_temperature;BMP_pressure;BME280_temperature;BME280_humidity;BME280_pressure;Samples;Min_cycle;Max_cycle;Signal;HPM_P1;HPM_P2
2023/08/14 00:00:37;;;;;;;2.20;1.50;;;;;;;-145.00;69.96;72943.03;4956055;28;20107;-75
2023/08/14 00:03:04;;;;;;;2.42;1.60;;;;;;;-145.00;69.58;72926.38;4952497;28;20052;-75
2023/08/14 00:05:32;;;;;;;2.92;1.50;;;;;;;-145.00;69.19;72901.38;4961764;28;20051;-76
2023/08/14 00:08:00;;;;;;;2.05;1.30;;;;;;;-145.00;69.47;72897.22;4972534;28;20042;-76
2023/08/14 00:10:28;;;;;;;2.92;1.73;;;;;;;-145.00;69.93;72893.06;4979889;28;20058;-75
2023/08/14 00:12:54;;;;;;;2.78;1.50;;;;;;;-145.00;70.37;72897.22;4972323;28;20069;-75
2023/08/14 00:15:21;;;;;;;1.98;1.25;;;;;;;-145.00;70.48;72884.72;4972283;28;20054;-76
2023/08/14 00:17:47;;;;;;;2.28;1.58;;;;;;;-145.00;70.86;72882.66;4969422;28;20402;-76
2023/08/14 00:20:14;;;;;;;3.33;1.50;;;;;;;-145.00;71.36;72882.66;4970885;28;20051;-77
2023/08/14 00:22:40;;;;;;;3.15;1.67;;;;;;;-145.00;71.34;72884.72;4972273;28;20047;-75
2023/08/14 00:25:09;;;;;;;2.20;1.40;;;;;;;-145.00;71.33;72884.72;4971753;28;20049;-76
2023/08/14 00:27:36;;;;;;;3.15;1.50;;;;;;;-145.00;71.70;72878.50;4972287;28;20051;-75
2023/08/14 00:30:04;;;;;;;2.17;1.27;;;;;;;-145.00;71.82;72878.50;4972122;28;20110;-75
2023/08/14 00:32:30;;;;;;;2.25;1.38;;;;;;;-145.00;71.62;72882.66;4953539;28;20043;-75
2023/08/14 00:34:57;;;;;;;2.00;1.45;;;;;;;-145.00;72.27;72893.06;4952965;28;20047;-75
2023/08/14 00:37:39;;;;;;;3.45;1.45;;;;;;;-145.00;72.21;72886.81;4953330;28;20051;-75
2023/08/14 00:40:07;;;;;;;1.95;1.45;;;;;;;-145.00;72.33;72886.81;4969158;28;20059;-75
2023/08/14 00:42:34;;;;;;;3.05;1.75;;;;;;;-145.00;72.10;72893.06;4976565;28;20102;-75
2023/08/14 00:45:01;;;;;;;1.95;1.58;;;;;;;-145.00;72.08;72897.22;4976997;28;20049;-76
2023/08/14 00:47:28;;;;;;;2.60;1.50;;;;;;;-145.00;72.16;72901.38;4977178;28;20043;-75
2023/08/14 00:49:55;;;;;;;3.20;1.42;;;;;;;-145.00;72.09;72897.22;4975067;28;20038;-75
2023/08/14 00:52:22;;;;;;;2.03;1.40;;;;;;;-145.00;71.22;72897.22;4975612;28;20418;-77
2023/08/14 00:54:48;;;;;;;1.75;1.42;;;;;;;-145.00;71.17;72895.16;4977845;28;20046;-77
2023/08/14 00:57:15;;;;;;;2.22;1.27;;;;;;;-145.00;71.67;72893.06;4980662;28;20061;-77
2023/08/14 00:59:42;;;;;;;2.55;1.40;;;;;;;-145.00;71.47;72893.06;4990037;28;20048;-78
2023/08/14 01:02:09;;;;;;;3.55;1.20;;;;;;;-145.00;71.67;72893.06;4980439;28;20045;-75
2023/08/14 01:04:36;;;;;;;2.05;1.50;;;;;;;-145.00;71.35;72899.31;4982222;28;20461;-76
2023/08/14 01:07:02;;;;;;;1.40;1.30;;;;;;;-145.00;72.04;72922.22;4983774;28;20430;-75
2023/08/14 01:09:29;;;;;;;2.28;1.40;;;;;;;-145.00;72.38;72930.53;4981847;28;20043;-77
2023/08/14 01:12:03;;;;;;;2.03;1.52;;;;;;;-145.00;72.18;72926.38;4981853;28;20057;-76
2023/08/14 01:14:33;;;;;;;3.20;1.30;;;;;;;-145.00;71.52;72922.22;4981828;28;20042;-76
2023/08/14 01:17:03;;;;;;;1.45;1.35;;;;;;;-145.00;71.15;72922.22;4977411;28;20039;-76
2023/08/14 01:19:35;;;;;;;3.17;1.30;;;;;;;-145.00;71.17;72926.38;4975987;28;20047;-76
2023/08/14 01:22:06;;;;;;;1.80;1.35;;;;;;;-145.00;71.61;72928.44;4975723;28;20072;-75
2023/08/14 01:24:46;;;;;;;2.22;1.48;;;;;;;-145.00;71.95;72913.88;4975438;28;20491;-76
2023/08/14 01:27:15;;;;;;;2.20;1.50;;;;;;;-145.00;71.71;72918.03;4974639;28;20051;-76
2023/08/14 01:29:41;;;;;;;2.88;1.52;;;;;;;-145.00;72.17;72930.53;4976438;28;20078;-76
2023/08/14 01:32:08;;;;;;;2.35;1.60;;;;;;;-145.00;71.43;72926.38;4946662;28;20499;-75
2023/08/14 01:34:34;;;;;;;1.67;1.40;;;;;;;-145.00;71.84;72926.38;4954875;28;20057;-75
2023/08/14 01:37:11;;;;;;;2.25;1.48;;;;;;;-145.00;72.27;72915.97;4954586;28;20079;-75
2023/08/14 01:39:44;;;;;;;1.85;1.48;;;;;;;-145.00;71.70;72924.28;4973360;28;20388;-76
2023/08/14 01:42:16;;;;;;;;;;;;;;;-145.00;71.44;72918.03;4973648;28;20053;-74
2023/08/14 01:44:48;;;;;;;2.60;1.15;;;;;;;-145.00;71.70;72924.28;4973286;28;19949;-74
2023/08/14 01:47:17;;;;;;;1.98;1.48;;;;;;;-145.00;71.82;72922.22;4972753;28;20051;-77
2023/08/14 01:49:44;;;;;;;2.20;1.55;;;;;;;-145.00;71.93;72920.13;4972407;28;20078;-77
2023/08/14 01:52:11;;;;;;;2.33;1.60;;;;;;;-145.00;71.75;72918.03;4972651;28;20101;-75
2023/08/14 01:54:38;;;;;;;1.77;1.38;;;;;;;-145.00;71.63;72924.28;4973086;28;20039;-74
2023/08/14 01:57:04;;;;;;;2.00;1.30;;;;;;;-145.00;71.79;72922.22;4972716;28;20050;-77
2023/08/14 01:59:41;;;;;;;1.70;1.30;;;;;;;-145.00;72.18;72928.44;4981221;28;20393;-75
2023/08/14 02:02:09;;;;;;;2.15;1.30;;;;;;;-145.00;71.96;72928.44;4973875;28;20418;-77
2023/08/14 02:04:36;;;;;;;1.83;1.30;;;;;;;-145.00;71.82;72930.53;4979147;28;20134;-76
2023/08/14 02:07:05;;;;;;;1.83;1.30;;;;;;;-145.00;72.18;72934.69;4982709;28;20055;-77
2023/08/14 02:09:32;;;;;;;2.70;1.45;;;;;;;-145.00;71.82;72934.69;4979079;28;20046;-77
2023/08/14 02:11:59;;;;;;;2.22;1.30;;;;;;;-145.00;72.08;72938.88;4978341;28;20047;-77
2023/08/14 02:14:25;;;;;;;3.00;1.63;;;;;;;-145.00;72.36;72951.34;4975910;28;20053;-74
2023/08/14 02:16:52;;;;;;;1.75;1.30;;;;;;;-145.00;72.78;72965.94;4975611;28;20050;-76
2023/08/14 02:19:20;;;;;;;2.42;1.30;;;;;;;-145.00;72.19;72955.50;4973347;28;20061;-75
2023/08/14 02:21:46;;;;;;;4.70;1.40;;;;;;;-145.00;71.93;72953.44;4974033;28;20047;-75
2023/08/14 02:24:13;;;;;;;1.90;1.40;;;;;;;-145.00;71.68;72955.50;4973629;28;20049;-76
2023/08/14 02:26:39;;;;;;;1.55;1.23;;;;;;;-145.00;72.07;72957.59;4973097;28;20047;-75
2023/08/14 02:29:06;;;;;;;2.78;1.55;;;;;;;-145.00;72.52;72951.34;4975011;28;20046;-75
2023/08/14 02:31:32;;;;;;;2.85;1.60;;;;;;;-145.00;72.57;72957.59;4978503;28;20133;-76
2023/08/14 02:34:01;;;;;;;2.40;1.50;;;;;;;-145.00;72.46;72959.69;4973421;28;20038;-75
2023/08/14 02:36:29;;;;;;;3.47;1.50;;;;;;;-145.00;72.51;72959.69;4982938;28;20109;-75
2023/08/14 02:38:56;;;;;;;2.83;1.60;;;;;;;-145.00;72.48;72957.59;4978560;28;20141;-77
2023/08/14 02:41:22;;;;;;;2.80;1.70;;;;;;;-145.00;72.73;72965.94;4973469;28;20053;-76
2023/08/14 02:43:49;;;;;;;2.15;1.55;;;;;;;-145.00;73.18;72984.66;4973252;28;20043;-76
2023/08/14 02:46:15;;;;;;;2.33;1.75;;;;;;;-145.00;73.67;73005.47;4973055;28;20053;-75
2023/08/14 02:48:45;;;;;;;2.53;1.70;;;;;;;-145.00;73.64;73005.47;4973408;28;20509;-74
2023/08/14 02:51:11;;;;;;;2.85;2.03;;;;;;;-145.00;72.44;72988.81;4972303;28;20050;-75
2023/08/14 02:53:39;;;;;;;5.40;1.70;;;;;;;-145.00;72.47;72984.66;4972635;28;20061;-75
2023/08/14 02:56:05;;;;;;;3.05;1.58;;;;;;;-145.00;72.35;72976.34;4971994;28;20046;-75
2023/08/14 02:58:32;;;;;;;4.10;2.20;;;;;;;-145.00;72.14;72972.16;4972718;28;20049;-77
2023/08/14 03:00:58;;;;;;;3.05;2.30;;;;;;;-145.00;72.32;72982.59;4990653;28;20050;-77
2023/08/14 03:03:25;;;;;;;3.85;2.03;;;;;;;-145.00;72.61;72993.00;4990330;28;20057;-77
2023/08/14 03:05:51;;;;;;;2.53;1.70;;;;;;;-145.00;72.73;72988.81;4991296;28;20046;-75
2023/08/14 03:08:18;;;;;;;2.42;1.80;;;;;;;-145.00;73.10;72988.81;4972621;28;20049;-75
2023/08/14 03:10:46;;;;;;;4.20;2.38;;;;;;;-145.00;72.88;72984.66;4971968;28;20407;-75
2023/08/14 03:13:12;;;;;;;4.32;2.10;;;;;;;-145.00;72.84;72984.66;4971427;28;20051;-75
2023/08/14 03:15:39;;;;;;;3.47;2.08;;;;;;;-145.00;73.01;72995.06;4971766;28;20053;-75
2023/08/14 03:18:05;;;;;;;2.97;1.83;;;;;;;-145.00;73.61;73013.81;4971379;28;20049;-74
2023/08/14 03:20:32;;;;;;;3.53;2.10;;;;;;;-145.00;73.22;73003.41;4971999;28;20046;-76
2023/08/14 03:22:58;;;;;;;2.40;1.75;;;;;;;-145.00;73.20;73003.41;4971926;28;20043;-75
2023/08/14 03:25:25;;;;;;;4.05;2.10;;;;;;;-145.00;72.86;73003.41;4970926;28;20498;-75
2023/08/14 03:27:53;;;;;;;5.50;1.80;;;;;;;-145.00;72.90;72993.00;4971662;28;20093;-75
2023/08/14 03:30:20;;;;;;;3.13;1.73;;;;;;;-145.00;73.07;72990.91;4980369;28;20054;-75
2023/08/14 03:32:47;;;;;;;3.15;1.90;;;;;;;-145.00;73.03;72984.66;4977322;28;20074;-75
2023/08/14 03:35:13;;;;;;;5.20;1.90;;;;;;;-145.00;73.06;72988.81;4971131;28;20046;-75
2023/08/14 03:37:40;;;;;;;2.80;2.00;;;;;;;-145.00;72.86;72993.00;4971577;28;20061;-75
2023/08/14 03:40:08;;;;;;;4.88;1.98;;;;;;;-145.00;72.56;73001.31;4971225;28;20047;-75
2023/08/14 03:42:35;;;;;;;3.15;2.00;;;;;;;-145.00;72.96;73009.66;4971455;28;20051;-75
2023/08/14 03:45:03;;;;;;;2.90;2.05;;;;;;;-145.00;72.50;73005.47;4971487;28;20047;-75
2023/08/14 03:47:29;;;;;;;2.55;1.80;;;;;;;-145.00;72.40;73005.47;4980768;28;20043;-74
2023/08/14 03:49:56;;;;;;;3.13;2.08;;;;;;;-145.00;72.50;72999.22;4975798;28;20521;-75
2023/08/14 03:52:22;;;;;;;4.30;1.98;;;;;;;-145.00;72.40;72999.22;4976700;28;20038;-76
2023/08/14 03:54:49;;;;;;;3.35;1.88;;;;;;;-145.00;72.61;73007.56;4974257;28;20506;-75
2023/08/14 03:57:16;;;;;;;3.28;1.88;;;;;;;-145.00;72.87;73011.72;4970920;28;20138;-75
2023/08/14 03:59:42;;;;;;;5.60;1.98;;;;;;;-145.00;72.96;73009.66;4980691;28;20051;-76
2023/08/14 04:02:10;;;;;;;3.55;2.00;;;;;;;-145.00;72.81;73022.13;4963395;28;20059;-75
2023/08/14 04:04:36;;;;;;;2.53;1.80;;;;;;;-145.00;72.74;73017.97;4951946;28;20047;-74
2023/08/14 04:07:03;;;;;;;3.47;1.63;;;;;;;-145.00;73.02;73024.22;4969187;28;20503;-75
2023/08/14 04:09:29;;;;;;;3.00;1.92;;;;;;;-145.00;73.35;73026.31;4971537;28;20051;-76
2023/08/14 04:11:56;;;;;;;3.28;2.10;;;;;;;-145.00;73.48;73030.47;4971223;28;20050;-75
2023/08/14 04:14:23;;;;;;;3.58;2.17;;;;;;;-145.00;73.47;73030.47;4973622;28;20399;-75
2023/08/14 04:16:50;;;;;;;3.15;2.00;;;;;;;-145.00;73.33;73030.47;4974925;28;20035;-75
2023/08/14 04:19:19;;;;;;;3.92;2.40;;;;;;;-145.00;73.07;73038.78;4974801;28;20042;-75
2023/08/14 04:21:45;;;;;;;3.45;2.13;;;;;;;-145.00;72.98;73032.53;4975265;28;20051;-76
2023/08/14 04:24:12;;;;;;;4.03;1.98;;;;;;;-145.00;72.63;73026.31;4974528;28;20055;-77
2023/08/14 04:26:39;;;;;;;4.13;2.15;;;;;;;-145.00;72.78;73030.47;4980290;28;20416;-77
2023/08/14 04:29:07;;;;;;;3.72;1.95;;;;;;;-145.00;72.74;73022.13;4972798;28;20445;-76
2023/08/14 04:31:34;;;;;;;3.78;2.40;;;;;;;-145.00;72.42;73026.31;4955828;28;20055;-77
2023/08/14 04:34:00;;;;;;;3.17;2.08;;;;;;;-145.00;72.14;73024.22;4961645;28;20078;-77
2023/08/14 04:36:28;;;;;;;3.75;1.90;;;;;;;-145.00;72.18;73026.31;4975121;28;20047;-77
2023/08/14 04:38:55;;;;;;;2.75;2.17;;;;;;;-145.00;72.02;73026.31;4974714;28;20050;-77
2023/08/14 04:41:21;;;;;;;4.32;2.13;;;;;;;-145.00;72.07;73028.38;4973896;28;22734;-75
2023/08/14 04:43:48;;;;;;;3.35;2.10;;;;;;;-145.00;72.12;73022.13;4974555;28;20065;-77
2023/08/14 04:46:29;;;;;;;3.47;2.20;;;;;;;-145.00;71.89;73011.72;4973833;28;20525;-75
2023/08/14 04:48:55;;;;;;;3.95;1.83;;;;;;;-145.00;71.65;73005.47;4974994;28;20061;-77
2023/08/14 04:51:21;;;;;;;2.30;1.75;;;;;;;-145.00;71.82;72997.16;4974097;28;20047;-76
2023/08/14 04:53:49;;;;;;;2.13;1.60;;;;;;;-145.00;71.73;72993.00;4974177;28;20050;-74
2023/08/14 04:56:16;;;;;;;2.30;1.70;;;;;;;-145.00;71.80;72997.16;4973540;28;20050;-77
2023/08/14 04:58:45;;;;;;;2.17;1.63;;;;;;;-145.00;71.98;72984.66;4976011;28;20458;-78
2023/08/14 05:01:11;;;;;;;3.38;2.10;;;;;;;-145.00;71.99;72980.50;4967831;28;20431;-80
2023/08/14 05:03:38;;;;;;;2.13;1.73;;;;;;;-145.00;71.57;72976.34;4966919;28;20550;-79
2023/08/14 05:06:04;;;;;;;4.43;1.60;;;;;;;-145.00;71.89;72976.34;4975474;28;20525;-79
2023/08/14 05:08:31;;;;;;;3.08;1.80;;;;;;;-145.00;71.77;72972.16;4975103;28;20546;-77
2023/08/14 05:10:59;;;;;;;2.88;1.80;;;;;;;-145.00;71.48;72963.84;4976381;28;20101;-79
2023/08/14 05:13:26;;;;;;;3.55;2.17;;;;;;;-145.00;71.31;72951.34;4975050;28;20061;-77
2023/08/14 05:15:53;;;;;;;3.28;2.00;;;;;;;-145.00;71.21;72955.50;4976531;28;20510;-79
2023/08/14 05:18:20;;;;;;;2.38;1.98;;;;;;;-145.00;71.18;72949.28;4974938;28;20047;-78
2023/08/14 05:20:47;;;;;;;3.00;2.03;;;;;;;-145.00;71.10;72940.94;4973596;28;20054;-73
2023/08/14 05:23:15;;;;;;;4.13;2.00;;;;;;;-145.00;71.13;72951.34;4973277;28;20047;-73
2023/08/14 05:25:42;;;;;;;3.33;1.90;;;;;;;-145.00;70.72;72938.88;4972118;28;20066;-73
2023/08/14 05:28:10;;;;;;;4.20;1.90;;;;;;;-145.00;70.61;72936.78;4980103;28;20047;-72
2023/08/14 05:30:37;;;;;;;3.47;2.20;;;;;;;-145.00;73.34;72990.91;4956417;28;20408;-73
2023/08/14 05:33:05;;;;;;;3.10;2.25;;;;;;;-145.00;74.76;73051.28;4953593;28;20054;-72
2023/08/14 05:35:31;;;;;;;2.97;1.90;;;;;;;-145.00;72.49;72986.75;4969063;28;20101;-73
2023/08/14 05:37:58;;;;;;;3.05;2.00;;;;;;;-145.00;71.37;72959.69;4973588;28;20435;-73
2023/08/14 05:40:25;;;;;;;2.88;1.70;;;;;;;-145.00;71.01;72943.03;4962049;28;20058;-74
2023/08/14 05:43:03;;;;;;;2.35;1.70;;;;;;;-145.00;69.83;72922.22;4949660;28;20062;-74
2023/08/14 05:45:31;;;;;;;2.35;1.80;;;;;;;-145.00;70.96;72930.53;4969707;28;20046;-74
2023/08/14 05:47:57;;;;;;;2.40;1.80;;;;;;;-145.00;69.98;72893.06;4970073;28;20050;-74
2023/08/14 05:50:25;;;;;;;3.00;1.83;;;;;;;-145.00;68.09;72872.25;4969084;28;20054;-75
2023/08/14 05:52:52;;;;;;;4.13;2.50;;;;;;;-145.00;67.81;72857.66;4970504;28;20517;-73
2023/08/14 05:55:18;;;;;;;3.10;1.70;;;;;;;-145.00;67.71;72851.44;4971898;28;20054;-74
2023/08/14 05:57:45;;;;;;;4.18;1.70;;;;;;;-145.00;67.16;72834.78;4972617;28;20047;-72
2023/08/14 06:00:12;;;;;;;2.05;1.45;;;;;;;-145.00;66.49;72830.59;4984816;28;20068;-72
2023/08/14 06:02:40;;;;;;;3.15;1.40;;;;;;;-145.00;67.22;72830.59;4986757;28;20046;-72
2023/08/14 06:05:08;;;;;;;3.08;1.67;;;;;;;-145.00;67.84;72830.59;4972167;28;20043;-72
2023/08/14 06:07:34;;;;;;;3.28;1.48;;;;;;;-145.00;66.49;72809.78;4972565;28;20077;-72
2023/08/14 06:10:01;;;;;;;2.55;1.48;;;;;;;-145.00;66.91;72803.53;4972606;28;20043;-71
2023/08/14 06:12:28;;;;;;;1.90;1.33;;;;;;;-145.00;66.90;72801.47;4991321;28;20046;-72
2023/08/14 06:14:54;;;;;;;2.38;1.50;;;;;;;-145.00;66.15;72799.38;4991969;28;20050;-72
2023/08/14 06:17:20;;;;;;;2.35;1.65;;;;;;;-145.00;65.49;72795.22;4990830;28;20042;-74
2023/08/14 06:19:48;;;;;;;2.33;1.48;;;;;;;-145.00;65.76;72784.81;4991326;28;20050;-73
2023/08/14 06:22:16;;;;;;;2.97;1.40;;;;;;;-145.00;65.48;72780.66;4991423;28;20054;-73
2023/08/14 06:24:43;;;;;;;2.92;1.50;;;;;;;-145.00;64.78;72776.47;4991670;28;20042;-73
2023/08/14 06:27:09;;;;;;;3.33;1.48;;;;;;;-145.00;64.67;72764.00;4974118;28;20059;-73
2023/08/14 06:29:36;;;;;;;3.22;1.30;;;;;;;-145.00;64.39;72761.91;4969504;28;20051;-74
2023/08/14 06:32:04;;;;;;;2.30;1.50;;;;;;;-145.00;64.10;72751.50;4957861;28;20055;-73
2023/08/14 06:34:33;;;;;;;2.25;1.58;;;;;;;-145.00;64.30;72743.19;4975419;28;20448;-72
2023/08/14 06:37:01;;;;;;;3.72;1.27;;;;;;;-145.00;64.19;72743.19;4975027;28;20043;-73
2023/08/14 06:39:28;;;;;;;1.55;1.23;;;;;;;-145.00;63.42;72730.69;4994498;28;20129;-72
2023/08/14 06:41:56;;;;;;;5.13;1.38;;;;;;;-145.00;62.14;72739.00;4993712;28;20046;-72
2023/08/14 06:44:23;;;;;;;2.47;1.30;;;;;;;-145.00;62.38;72734.84;4993110;28;20046;-73
2023/08/14 06:46:50;;;;;;;2.15;1.50;;;;;;;-145.00;62.59;72720.28;4993197;28;20054;-72
2023/08/14 06:49:16;;;;;;;2.95;1.38;;;;;;;-145.00;62.11;72689.06;4992347;28;20054;-74
2023/08/14 06:51:42;;;;;;;2.55;1.38;;;;;;;-145.00;62.44;72676.56;4992166;28;20050;-74
2023/08/14 06:54:10;;;;;;;3.28;1.20;;;;;;;-145.00;62.20;72668.22;4990619;28;20058;-74
2023/08/14 06:56:37;;;;;;;2.00;1.02;;;;;;;-145.00;60.88;72670.31;4978071;28;20053;-72
2023/08/14 06:59:04;;;;;;;2.17;1.55;;;;;;;-145.00;64.04;72730.69;4971892;28;20043;-72
2023/08/14 07:01:30;;;;;;;2.20;1.27;;;;;;;-145.00;62.70;72691.13;4952873;28;20047;-72
2023/08/14 07:03:57;;;;;;;3.03;1.40;;;;;;;-145.00;63.90;72691.13;4952714;28;20043;-72
2023/08/14 07:06:23;;;;;;;3.40;1.50;;;;;;;-145.00;62.69;72689.06;4969115;28;20050;-72
2023/08/14 07:08:50;;;;;;;4.20;1.42;;;;;;;-145.00;61.51;72655.75;4972082;28;20039;-72
2023/08/14 07:11:18;;;;;;;1.80;1.40;;;;;;;-145.00;61.59;72651.59;4971438;28;20057;-72
2023/08/14 07:13:44;;;;;;;2.28;1.05;;;;;;;-145.00;60.53;72630.75;4971335;28;20498;-72
2023/08/14 07:16:11;;;;;;;3.38;1.30;;;;;;;-145.00;59.11;72605.78;4971245;28;20050;-72
2023/08/14 07:18:38;;;;;;;2.72;1.30;;;;;;;-145.00;58.07;72589.13;4971435;28;20073;-72
2023/08/14 07:21:04;;;;;;;4.55;1.50;;;;;;;-145.00;57.63;72578.72;4970734;28;20070;-72
2023/08/14 07:23:32;;;;;;;2.58;1.10;;;;;;;-145.00;57.54;72555.81;4971450;28;20042;-72
2023/08/14 07:26:03;;;;;;;1.75;1.27;;;;;;;-145.00;58.86;72601.63;4970900;28;20055;-73
2023/08/14 07:28:31;;;;;;;1.83;1.30;;;;;;;-145.00;56.61;72551.66;4972786;28;20418;-72
2023/08/14 07:30:58;;;;;;;2.28;1.40;;;;;;;-145.00;57.48;72572.47;4976732;28;20051;-71
2023/08/14 07:33:24;;;;;;;2.60;1.30;;;;;;;-145.00;56.41;72535.00;4963282;28;20039;-72
2023/08/14 07:35:51;;;;;;;3.08;1.75;;;;;;;-145.00;56.33;72543.34;4971580;28;20046;-72
2023/08/14 07:38:17;;;;;;;2.20;1.52;;;;;;;-145.00;55.47;72501.69;4970628;28;20055;-72
2023/08/14 07:40:44;;;;;;;1.83;1.20;;;;;;;-145.00;52.53;72393.47;4971123;28;20055;-72
2023/08/14 07:43:10;;;;;;;2.13;1.60;;;;;;;-145.00;51.01;72418.44;4970715;28;20050;-72
2023/08/14 07:45:38;;;;;;;1.80;1.50;;;;;;;-145.00;50.38;72314.38;4970605;28;20047;-74
2023/08/14 07:48:05;;;;;;;3.55;1.63;;;;;;;-145.00;49.73;72310.19;4971134;28;20062;-74
2023/08/14 07:50:32;;;;;;;2.85;1.63;;;;;;;-145.00;48.76;72356.00;4975196;28;20050;-72
2023/08/14 07:52:58;;;;;;;4.15;1.67;;;;;;;-145.00;48.64;72274.81;4975028;28;20050;-72
2023/08/14 07:55:25;;;;;;;2.60;1.50;;;;;;;-145.00;48.96;72210.28;4974405;28;20066;-73
2023/08/14 07:57:51;;;;;;;1.90;1.50;;;;;;;-145.00;46.92;72206.13;4983357;28;20057;-73
2023/08/14 08:00:18;;;;;;;2.53;1.85;;;;;;;-145.00;47.33;72264.41;4966834;28;20057;-73
2023/08/14 08:02:46;;;;;;;2.45;1.52;;;;;;;-145.00;45.89;72208.22;4955625;28;20154;-73
2023/08/14 08:05:13;;;;;;;2.97;1.63;;;;;;;-145.00;46.53;72222.78;4955319;28;20050;-73
2023/08/14 08:07:39;;;;;;;3.30;1.50;;;;;;;-145.00;46.47;72270.66;4955784;28;20047;-73
2023/08/14 08:10:06;;;;;;;2.38;1.38;;;;;;;-145.00;47.45;72281.06;4957850;28;20046;-72
2023/08/14 08:12:33;;;;;;;4.03;1.58;;;;;;;-145.00;45.36;72177.00;4974897;28;20043;-72
2023/08/14 08:15:00;;;;;;;2.30;1.50;;;;;;;-145.00;46.24;72106.22;4974395;28;20406;-72
2023/08/14 08:17:26;;;;;;;1.30;1.20;;;;;;;-145.00;44.65;72077.09;4974289;28;20053;-73
2023/08/14 08:19:54;;;;;;;2.80;1.58;;;;;;;-145.00;43.74;72052.09;4974531;28;20495;-73
2023/08/14 08:22:20;;;;;;;2.47;1.45;;;;;;;-145.00;43.77;72060.44;4973512;28;20055;-73
2023/08/14 08:24:47;;;;;;;1.95;1.48;;;;;;;-145.00;43.91;72085.41;4974467;28;20039;-72
2023/08/14 08:27:14;;;;;;;2.20;1.48;;;;;;;-145.00;43.27;72079.16;4973721;28;20462;-74
2023/08/14 08:29:40;;;;;;;2.97;1.50;;;;;;;-145.00;43.95;72052.09;4970773;28;20126;-72
2023/08/14 08:32:08;;;;;;;2.70;1.63;;;;;;;-145.00;44.51;72047.94;4959431;28;20035;-74
2023/08/14 08:34:34;;;;;;;1.98;1.60;;;;;;;-145.00;45.06;72095.81;4974115;28;20066;-74
2023/08/14 08:37:02;;;;;;;3.63;1.63;;;;;;;-145.00;43.87;72056.25;4974212;28;20514;-73
2023/08/14 08:39:29;;;;;;;3.72;1.63;;;;;;;-145.00;44.36;72077.09;4973853;28;20053;-74
2023/08/14 08:41:57;;;;;;;2.75;1.95;;;;;;;-145.00;45.21;72093.72;4974001;28;20043;-74
2023/08/14 08:44:26;;;;;;;2.92;1.98;;;;;;;-145.00;45.06;72068.75;4973444;28;20042;-72
2023/08/14 08:46:57;;;;;;;3.08;2.15;;;;;;;-145.00;45.97;72052.09;4974051;28;20051;-72
2023/08/14 08:49:24;;;;;;;3.45;2.10;;;;;;;-145.00;46.76;72018.81;4973581;28;20045;-72
2023/08/14 08:51:52;;;;;;;4.25;2.10;;;;;;;-145.00;45.75;71979.25;4973884;28;20039;-72
2023/08/14 08:54:20;;;;;;;3.72;2.00;;;;;;;-145.00;44.79;71931.38;4973127;28;20061;-72
2023/08/14 08:56:48;;;;;;;6.10;1.70;;;;;;;-145.00;44.29;71864.78;4973269;28;20047;-72
2023/08/14 08:59:16;;;;;;;3.67;1.77;;;;;;;-145.00;44.13;71902.25;4978417;28;20046;-72
2023/08/14 09:01:43;;;;;;;3.08;1.70;;;;;;;-145.00;43.30;71889.75;4993069;28;20047;-74
2023/08/14 09:04:09;;;;;;;3.65;1.70;;;;;;;-145.00;42.71;71821.06;4992556;28;20042;-72
2023/08/14 09:06:36;;;;;;;2.25;1.70;;;;;;;-145.00;42.06;71789.88;4993289;28;20065;-74
2023/08/14 09:09:03;;;;;;;2.90;1.88;;;;;;;-145.00;41.59;71781.53;4976000;28;20050;-72
2023/08/14 09:11:31;;;;;;;3.47;1.52;;;;;;;-145.00;42.32;71777.38;4973810;28;20049;-73
2023/08/14 09:13:58;;;;;;;3.63;1.85;;;;;;;-145.00;42.83;71858.53;4973725;28;20046;-72
2023/08/14 09:16:25;;;;;;;2.58;1.70;;;;;;;-145.00;42.71;71835.66;4973081;28;20047;-73
2023/08/14 09:18:51;;;;;;;3.78;1.98;;;;;;;-145.00;43.42;71839.81;4973538;28;20042;-72
2023/08/14 09:21:18;;;;;;;3.28;1.90;;;;;;;-145.00;42.87;71843.97;4972731;28;20055;-73
2023/08/14 09:23:45;;;;;;;4.00;2.05;;;;;;;-145.00;43.19;71856.47;4973496;28;20046;-73
2023/08/14 09:26:12;;;;;;;4.10;2.10;;;;;;;-145.00;44.21;71885.59;4972854;28;20541;-74
2023/08/14 09:28:40;;;;;;;4.78;2.40;;;;;;;-145.00;44.63;71912.66;4978573;28;20051;-74
2023/08/14 09:31:07;;;;;;;4.53;1.85;;;;;;;-145.00;45.34;71975.09;4954359;28;20047;-74
2023/08/14 09:33:34;;;;;;;2.55;2.00;;;;;;;-145.00;45.78;71889.75;4956993;28;20047;-73
2023/08/14 09:36:00;;;;;;;5.80;1.90;;;;;;;-145.00;43.59;71843.97;4965928;28;20039;-73
2023/08/14 09:38:27;;;;;;;3.38;1.90;;;;;;;-145.00;43.69;71821.06;4973030;28;20043;-72
2023/08/14 09:40:57;;;;;;;3.63;1.95;;;;;;;-145.00;43.25;71806.50;4972279;28;20065;-73
2023/08/14 09:43:24;;;;;;;3.88;2.15;;;;;;;-145.00;43.51;71902.25;4972672;28;20050;-73
2023/08/14 09:45:52;;;;;;;5.13;2.10;;;;;;;-145.00;43.27;71858.53;4973282;28;20392;-72
2023/08/14 09:48:19;;;;;;;4.18;2.10;;;;;;;-145.00;41.94;71829.41;4972370;28;20045;-74
2023/08/14 09:50:49;;;;;;;3.30;1.77;;;;;;;-145.00;43.34;71866.88;4972626;28;20173;-73
2023/08/14 09:53:16;;;;;;;3.13;1.98;;;;;;;-145.00;43.02;71843.97;4972459;28;20098;-73
2023/08/14 09:55:43;;;;;;;4.05;1.88;;;;;;;-145.00;42.17;71831.47;4967232;28;20507;-73
2023/08/14 09:58:10;;;;;;;2.95;1.95;;;;;;;-145.00;41.82;71796.09;4970257;28;20133;-71
2023/08/14 10:00:38;;;;;;;2.45;1.63;;;;;;;-145.00;40.19;71744.06;4987965;28;20462;-75
2023/08/14 10:03:09;;;;;;;2.58;1.85;;;;;;;-145.00;40.91;71696.22;4962655;28;20051;-74
2023/08/14 10:05:37;;;;;;;2.47;1.80;;;;;;;-145.00;42.37;71721.19;4954023;28;20050;-73
2023/08/14 10:08:07;;;;;;;2.72;1.88;;;;;;;-145.00;41.76;71698.28;4961051;28;20130;-73
2023/08/14 10:10:35;;;;;;;2.78;1.83;;;;;;;-145.00;41.41;71689.97;4972207;28;20098;-73
2023/08/14 10:13:06;;;;;;;2.40;2.00;;;;;;;-145.00;42.25;71625.44;4972096;28;20094;-72
2023/08/14 10:15:35;;;;;;;2.72;1.95;;;;;;;-145.00;40.93;71560.94;4979711;28;20074;-74
2023/08/14 10:18:07;;;;;;;3.20;1.90;;;;;;;-145.00;38.68;71513.06;4971917;28;20042;-74
2023/08/14 10:20:36;;;;;;;3.75;2.00;;;;;;;-145.00;39.11;71498.50;4972331;28;20054;-74
2023/08/14 10:23:03;;;;;;;3.17;1.88;;;;;;;-145.00;38.79;71521.38;4971092;28;20059;-74
2023/08/14 10:25:30;;;;;;;4.03;2.10;;;;;;;-145.00;39.00;71535.97;4971576;28;20050;-75
2023/08/14 10:27:57;;;;;;;2.30;1.67;;;;;;;-145.00;39.34;71494.34;4972255;28;20051;-75
2023/08/14 10:30:24;;;;;;;4.85;2.05;;;;;;;-145.00;37.47;71481.84;4980340;28;20077;-75
2023/08/14 10:32:51;;;;;;;2.50;1.52;;;;;;;-145.00;36.99;71465.19;4971677;28;20078;-75
2023/08/14 10:35:18;;;;;;;3.50;1.58;;;;;;;-145.00;36.64;71436.06;4978079;28;20057;-74
2023/08/14 10:37:48;;;;;;;2.65;1.38;;;;;;;-145.00;35.86;71436.06;4971865;28;20046;-73
2023/08/14 10:40:17;;;;;;;1.80;1.50;;;;;;;-145.00;36.39;71415.25;4971335;28;20082;-75
2023/08/14 10:42:46;;;;;;;3.08;1.23;;;;;;;-145.00;36.01;71402.78;4971937;28;20042;-74
2023/08/14 10:45:17;;;;;;;2.30;1.33;;;;;;;-145.00;35.23;71423.59;4971434;28;20053;-75
2023/08/14 10:47:44;;;;;;;1.80;1.20;;;;;;;-145.00;35.29;71434.00;4971503;28;20050;-74
2023/08/14 10:50:15;;;;;;;2.30;1.40;;;;;;;-145.00;34.82;71436.06;4971134;28;20074;-74
2023/08/14 10:52:47;;;;;;;1.85;1.40;;;;;;;-145.00;35.10;71483.94;4971751;28;20515;-74
2023/08/14 10:55:18;;;;;;;2.50;1.60;;;;;;;-145.00;36.26;71448.56;4970960;28;20042;-74
2023/08/14 10:57:46;;;;;;;1.80;1.35;;;;;;;-145.00;34.61;71436.06;4971790;28;20043;-74
2023/08/14 11:00:23;;;;;;;1.75;1.20;;;;;;;-145.00;35.27;71394.44;4986152;28;20050;-74
2023/08/14 11:02:51;;;;;;;2.63;1.30;;;;;;;-145.00;34.59;71365.31;4983992;28;20055;-74
2023/08/14 11:05:18;;;;;;;1.95;1.40;;;;;;;-145.00;34.09;71346.59;4970874;28;20486;-74
2023/08/14 11:07:58;;;;;;;2.42;1.58;;;;;;;-145.00;34.21;71340.34;4971459;28;20039;-74
2023/08/14 11:10:26;;;;;;;4.28;1.52;;;;;;;-145.00;34.22;71352.81;4970622;28;20059;-74
2023/08/14 11:12:53;;;;;;;2.88;1.55;;;;;;;-145.00;35.13;71377.81;4971206;28;20530;-73
2023/08/14 11:15:21;;;;;;;2.03;1.25;;;;;;;-145.00;35.16;71390.28;4971060;28;20501;-74
2023/08/14 11:17:48;;;;;;;3.47;1.38;;;;;;;-145.00;34.94;71371.56;4971418;28;20046;-74